sensor_id;sensor_type;location;lat;lon;timestamp;P1;durP1;ratioP1;P2;durP2;ratioP2
30249;SDS011;17064;47.974;13.826;2022-11-18T00:04:01;10.50;;;6.72;;
30249;SDS011;17064;47.974;13.826;2022-11-18T00:09:02;16.13;;;8.48;;
30249;SDS011;17064;47.974;13.826;2022-11-18T00:14:03;19.02;;;10.85;;
30249;SDS011;17064;47.974;13.826;2022-11-18T00:19:21;23.02;;;11.13;;
30249;SDS011;17064;47.974;13.826;2022-11-18T00:24:23;20.40;;;11.15;;
30249;SDS011;17064;47.974;13.826;2022-11-18T00:29:25;19.23;;;11.20;;
30249;SDS011;17064;47.974;13.826;2022-11-18T00:34:27;20.08;;;11.18;;
30249;SDS011;17064;47.974;13.826;2022-11-18T00:39:28;20.55;;;11.38;;
30249;SDS011;17064;47.974;13.826;2022-11-18T00:44:28;18.23;;;9.73;;
30249;SDS011;17064;47.974;13.826;2022-11-18T00:49:29;17.20;;;10.30;;
30249;SDS011;17064;47.974;13.826;2022-11-18T00:54:30;20.75;;;11.70;;
30249;SDS011;17064;47.974;13.826;2022-11-18T00:59:30;19.00;;;10.70;;
30249;SDS011;17064;47.974;13.826;2022-11-18T01:04:31;18.95;;;11.27;;
30249;SDS011;17064;47.974;13.826;2022-11-18T01:09:32;21.27;;;11.13;;
30249;SDS011;17064;47.974;13.826;2022-11-18T01:14:33;22.42;;;12.18;;
30249;SDS011;17064;47.974;13.826;2022-11-18T01:19:33;21.95;;;11.52;;
30249;SDS011;17064;47.974;13.826;2022-11-18T01:24:34;96.80;;;10.68;;
30249;SDS011;17064;47.974;13.826;2022-11-18T01:29:35;12.95;;;6.72;;
30249;SDS011;17064;47.974;13.826;2022-11-18T01:34:35;43.22;;;8.57;;
30249;SDS011;17064;47.974;13.826;2022-11-18T01:39:36;16.05;;;8.00;;
30249;SDS011;17064;47.974;13.826;2022-11-18T01:45:39;42.40;;;11.00;;
30249;SDS011;17064;47.974;13.826;2022-11-18T01:50:34;38.72;;;10.88;;
30249;SDS011;17064;47.974;13.826;2022-11-18T01:55:40;23.75;;;11.38;;
30249;SDS011;17064;47.974;13.826;2022-11-18T02:00:45;37.03;;;17.00;;
30249;SDS011;17064;47.974;13.826;2022-11-18T02:05:46;33.97;;;17.17;;
30249;SDS011;17064;47.974;13.826;2022-11-18T02:10:48;37.70;;;15.48;;
30249;SDS011;17064;47.974;13.826;2022-11-18T02:31:59;30.08;;;12.82;;
30249;SDS011;17064;47.974;13.826;2022-11-18T02:37:09;37.30;;;13.45;;
30249;SDS011;17064;47.974;13.826;2022-11-18T02:42:15;26.95;;;13.00;;
30249;SDS011;17064;47.974;13.826;2022-11-18T02:47:16;28.70;;;12.20;;
30249;SDS011;17064;47.974;13.826;2022-11-18T02:52:20;26.02;;;11.57;;
30249;SDS011;17064;47.974;13.826;2022-11-18T02:57:22;23.73;;;11.38;;
30249;SDS011;17064;47.974;13.826;2022-11-18T03:02:24;30.38;;;11.55;;
30249;SDS011;17064;47.974;13.826;2022-11-18T03:07:29;27.52;;;12.10;;
30249;SDS011;17064;47.974;13.826;2022-11-18T03:12:42;21.98;;;10.55;;
30249;SDS011;17064;47.974;13.826;2022-11-18T03:33:48;15.82;;;6.72;;
30249;SDS011;17064;47.974;13.826;2022-11-18T03:38:54;16.10;;;6.10;;
30249;SDS011;17064;47.974;13.826;2022-11-18T03:44:03;10.10;;;4.63;;
30249;SDS011;17064;47.974;13.826;2022-11-18T03:49:10;8.32;;;4.25;;
30249;SDS011;17064;47.974;13.826;2022-11-18T03:54:18;11.52;;;4.53;;
30249;SDS011;17064;47.974;13.826;2022-11-18T03:59:44;14.60;;;6.18;;
30249;SDS011;17064;47.974;13.826;2022-11-18T04:04:47;8.82;;;5.05;;
30249;SDS011;17064;47.974;13.826;2022-11-18T04:14:56;13.40;;;5.72;;
30249;SDS011;17064;47.974;13.826;2022-11-18T04:19:58;8.93;;;5.85;;
30249;SDS011;17064;47.974;13.826;2022-11-18T04:24:59;10.95;;;5.45;;
30249;SDS011;17064;47.974;13.826;2022-11-18T04:29:59;12.25;;;5.32;;
30249;SDS011;17064;47.974;13.826;2022-11-18T04:35:00;9.38;;;5.32;;
30249;SDS011;17064;47.974;13.826;2022-11-18T04:40:01;7.30;;;3.95;;
30249;SDS011;17064;47.974;13.826;2022-11-18T04:45:03;8.90;;;4.70;;
30249;SDS011;17064;47.974;13.826;2022-11-18T04:50:04;11.52;;;5.63;;
30249;SDS011;17064;47.974;13.826;2022-11-18T04:55:05;8.85;;;4.95;;
30249;SDS011;17064;47.974;13.826;2022-11-18T05:00:07;7.88;;;3.80;;
30249;SDS011;17064;47.974;13.826;2022-11-18T05:05:08;6.30;;;3.70;;
30249;SDS011;17064;47.974;13.826;2022-11-18T05:10:09;6.60;;;4.07;;
30249;SDS011;17064;47.974;13.826;2022-11-18T05:15:09;14.43;;;7.30;;
30249;SDS011;17064;47.974;13.826;2022-11-18T05:20:10;15.88;;;7.55;;
30249;SDS011;17064;47.974;13.826;2022-11-18T05:25:12;17.67;;;8.65;;
30249;SDS011;17064;47.974;13.826;2022-11-18T05:30:12;15.15;;;8.48;;
30249;SDS011;17064;47.974;13.826;2022-11-18T05:35:13;15.27;;;8.45;;
30249;SDS011;17064;47.974;13.826;2022-11-18T05:40:14;27.40;;;11.15;;
30249;SDS011;17064;47.974;13.826;2022-11-18T05:45:14;26.63;;;11.10;;
30249;SDS011;17064;47.974;13.826;2022-11-18T05:50:15;20.83;;;11.48;;
30249;SDS011;17064;47.974;13.826;2022-11-18T05:55:16;19.88;;;9.63;;
30249;SDS011;17064;47.974;13.826;2022-11-18T06:00:18;19.95;;;10.88;;
30249;SDS011;17064;47.974;13.826;2022-11-18T06:05:19;21.75;;;10.23;;
30249;SDS011;17064;47.974;13.826;2022-11-18T06:10:23;19.48;;;9.68;;
30249;SDS011;17064;47.974;13.826;2022-11-18T06:15:33;19.88;;;9.38;;
30249;SDS011;17064;47.974;13.826;2022-11-18T06:20:40;18.58;;;10.43;;
30249;SDS011;17064;47.974;13.826;2022-11-18T06:25:41;15.02;;;8.55;;
30249;SDS011;17064;47.974;13.826;2022-11-18T06:30:42;18.00;;;8.55;;
30249;SDS011;17064;47.974;13.826;2022-11-18T06:35:43;14.68;;;7.35;;
30249;SDS011;17064;47.974;13.826;2022-11-18T06:40:44;14.05;;;7.47;;
30249;SDS011;17064;47.974;13.826;2022-11-18T06:45:45;10.20;;;6.00;;
30249;SDS011;17064;47.974;13.826;2022-11-18T06:51:06;11.18;;;5.35;;
30249;SDS011;17064;47.974;13.826;2022-11-18T06:56:07;10.60;;;5.82;;
30249;SDS011;17064;47.974;13.826;2022-11-18T07:01:12;11.93;;;5.55;;
30249;SDS011;17064;47.974;13.826;2022-11-18T07:06:18;10.57;;;5.03;;
30249;SDS011;17064;47.974;13.826;2022-11-18T07:11:24;5.45;;;2.97;;
30249;SDS011;17064;47.974;13.826;2022-11-18T07:16:25;3.78;;;1.35;;
30249;SDS011;17064;47.974;13.826;2022-11-18T07:21:28;1.48;;;1.17;;
30249;SDS011;17064;47.974;13.826;2022-11-18T07:26:29;0.80;;;0.80;;
30249;SDS011;17064;47.974;13.826;2022-11-18T07:31:29;3.22;;;1.92;;
30249;SDS011;17064;47.974;13.826;2022-11-18T07:36:31;2.45;;;1.80;;
30249;SDS011;17064;47.974;13.826;2022-11-18T07:41:32;2.15;;;0.98;;
30249;SDS011;17064;47.974;13.826;2022-11-18T07:46:34;0.70;;;0.40;;
30249;SDS011;17064;47.974;13.826;2022-11-18T07:51:37;2.00;;;0.70;;
30249;SDS011;17064;47.974;13.826;2022-11-18T07:56:39;1.67;;;0.73;;
30249;SDS011;17064;47.974;13.826;2022-11-18T08:01:40;7.85;;;4.20;;
30249;SDS011;17064;47.974;13.826;2022-11-18T08:06:40;10.27;;;4.93;;
30249;SDS011;17064;47.974;13.826;2022-11-18T08:11:41;1.15;;;0.47;;
30249;SDS011;17064;47.974;13.826;2022-11-18T08:16:42;1.75;;;0.40;;
30249;SDS011;17064;47.974;13.826;2022-11-18T08:21:42;2.75;;;0.68;;
30249;SDS011;17064;47.974;13.826;2022-11-18T08:26:43;5.18;;;1.85;;
30249;SDS011;17064;47.974;13.826;2022-11-18T08:31:44;1.20;;;0.70;;
30249;SDS011;17064;47.974;13.826;2022-11-18T08:36:44;0.98;;;0.70;;
30249;SDS011;17064;47.974;13.826;2022-11-18T08:41:45;1.85;;;0.60;;
30249;SDS011;17064;47.974;13.826;2022-11-18T08:46:46;0.68;;;0.50;;
30249;SDS011;17064;47.974;13.826;2022-11-18T08:51:47;3.25;;;1.30;;
30249;SDS011;17064;47.974;13.826;2022-11-18T08:56:48;7.05;;;1.92;;
30249;SDS011;17064;47.974;13.826;2022-11-18T09:01:49;7.68;;;2.40;;
30249;SDS011;17064;47.974;13.826;2022-11-18T09:06:50;2.80;;;1.23;;
30249;SDS011;17064;47.974;13.826;2022-11-18T09:11:50;0.60;;;0.50;;
30249;SDS011;17064;47.974;13.826;2022-11-18T09:16:51;1.35;;;0.20;;
30249;SDS011;17064;47.974;13.826;2022-11-18T09:21:52;0.60;;;0.40;;
30249;SDS011;17064;47.974;13.826;2022-11-18T09:26:52;3.25;;;0.60;;
30249;SDS011;17064;47.974;13.826;2022-11-18T09:31:53;0.60;;;0.60;;
30249;SDS011;17064;47.974;13.826;2022-11-18T09:36:54;2.60;;;0.90;;
30249;SDS011;17064;47.974;13.826;2022-11-18T09:42:06;1.00;;;0.60;;
30249;SDS011;17064;47.974;13.826;2022-11-18T09:47:24;1.48;;;0.40;;
30249;SDS011;17064;47.974;13.826;2022-11-18T09:52:59;0.25;;;0.15;;
30249;SDS011;17064;47.974;13.826;2022-11-18T09:58:31;0.20;;;0.20;;
30249;SDS011;17064;47.974;13.826;2022-11-18T10:03:33;1.70;;;0.40;;
30249;SDS011;17064;47.974;13.826;2022-11-18T10:08:40;0.47;;;0.28;;
30249;SDS011;17064;47.974;13.826;2022-11-18T10:24:42;0.28;;;0.20;;
30249;SDS011;17064;47.974;13.826;2022-11-18T10:29:52;1.27;;;0.70;;
30249;SDS011;17064;47.974;13.826;2022-11-18T10:34:57;0.80;;;0.35;;
30249;SDS011;17064;47.974;13.826;2022-11-18T10:39:58;4.35;;;0.40;;
30249;SDS011;17064;47.974;13.826;2022-11-18T10:50:32;2.53;;;0.40;;
30249;SDS011;17064;47.974;13.826;2022-11-18T10:55:33;2.13;;;0.20;;
30249;SDS011;17064;47.974;13.826;2022-11-18T11:00:35;1.25;;;0.40;;
30249;SDS011;17064;47.974;13.826;2022-11-18T11:05:38;2.13;;;0.20;;
30249;SDS011;17064;47.974;13.826;2022-11-18T11:10:39;0.35;;;0.15;;
30249;SDS011;17064;47.974;13.826;2022-11-18T11:15:40;3.20;;;0.40;;
30249;SDS011;17064;47.974;13.826;2022-11-18T11:20:45;0.82;;;0.28;;
30249;SDS011;17064;47.974;13.826;2022-11-18T11:52:15;0.37;;;0.30;;
30249;SDS011;17064;47.974;13.826;2022-11-18T12:02:33;2.47;;;0.50;;
30249;SDS011;17064;47.974;13.826;2022-11-18T12:07:46;1.80;;;0.90;;
30249;SDS011;17064;47.974;13.826;2022-11-18T12:18:42;2.22;;;0.77;;
30249;SDS011;17064;47.974;13.826;2022-11-18T12:24:22;0.88;;;0.82;;
30249;SDS011;17064;47.974;13.826;2022-11-18T12:29:25;0.63;;;0.63;;
30249;SDS011;17064;47.974;13.826;2022-11-18T12:44:43;1.85;;;0.75;;
30249;SDS011;17064;47.974;13.826;2022-11-18T12:54:47;0.80;;;0.50;;
30249;SDS011;17064;47.974;13.826;2022-11-18T12:59:49;1.55;;;0.50;;
30249;SDS011;17064;47.974;13.826;2022-11-18T13:05:03;0.80;;;0.68;;
30249;SDS011;17064;47.974;13.826;2022-11-18T13:10:19;0.80;;;0.70;;
30249;SDS011;17064;47.974;13.826;2022-11-18T13:15:22;0.57;;;0.50;;
30249;SDS011;17064;47.974;13.826;2022-11-18T13:20:42;2.38;;;0.60;;
30249;SDS011;17064;47.974;13.826;2022-11-18T13:25:53;0.77;;;0.50;;
30249;SDS011;17064;47.974;13.826;2022-11-18T13:31:14;0.50;;;0.50;;
30249;SDS011;17064;47.974;13.826;2022-11-18T13:36:29;1.02;;;0.63;;
30249;SDS011;17064;47.974;13.826;2022-11-18T13:41:32;6.30;;;0.73;;
30249;SDS011;17064;47.974;13.826;2022-11-18T13:46:34;0.52;;;0.50;;
30249;SDS011;17064;47.974;13.826;2022-11-18T13:51:35;2.35;;;0.77;;
30249;SDS011;17064;47.974;13.826;2022-11-18T13:56:37;1.43;;;0.70;;
30249;SDS011;17064;47.974;13.826;2022-11-18T14:01:39;2.90;;;0.77;;
30249;SDS011;17064;47.974;13.826;2022-11-18T14:06:40;2.20;;;0.88;;
30249;SDS011;17064;47.974;13.826;2022-11-18T14:11:42;2.67;;;1.30;;
30249;SDS011;17064;47.974;13.826;2022-11-18T14:16:44;2.75;;;0.70;;
30249;SDS011;17064;47.974;13.826;2022-11-18T14:21:45;0.75;;;0.38;;
30249;SDS011;17064;47.974;13.826;2022-11-18T14:26:45;0.60;;;0.50;;
30249;SDS011;17064;47.974;13.826;2022-11-18T14:37:15;0.40;;;0.40;;
30249;SDS011;17064;47.974;13.826;2022-11-18T14:42:16;0.75;;;0.60;;
30249;SDS011;17064;47.974;13.826;2022-11-18T14:47:22;0.40;;;0.20;;
30249;SDS011;17064;47.974;13.826;2022-11-18T14:52:26;0.45;;;0.30;;
30249;SDS011;17064;47.974;13.826;2022-11-18T14:57:27;0.30;;;0.30;;
30249;SDS011;17064;47.974;13.826;2022-11-18T15:02:27;1.85;;;1.00;;
30249;SDS011;17064;47.974;13.826;2022-11-18T15:07:28;4.55;;;1.20;;
30249;SDS011;17064;47.974;13.826;2022-11-18T15:12:29;2.92;;;2.22;;
30249;SDS011;17064;47.974;13.826;2022-11-18T15:17:29;1.77;;;0.93;;
30249;SDS011;17064;47.974;13.826;2022-11-18T15:22:30;2.03;;;1.13;;
30249;SDS011;17064;47.974;13.826;2022-11-18T15:27:31;1.98;;;1.30;;
30249;SDS011;17064;47.974;13.826;2022-11-18T15:32:33;5.38;;;2.22;;
30249;SDS011;17064;47.974;13.826;2022-11-18T15:37:33;1.27;;;1.17;;
30249;SDS011;17064;47.974;13.826;2022-11-18T15:42:34;4.43;;;2.20;;
30249;SDS011;17064;47.974;13.826;2022-11-18T15:47:35;1.70;;;0.80;;
30249;SDS011;17064;47.974;13.826;2022-11-18T15:52:35;1.08;;;0.85;;
30249;SDS011;17064;47.974;13.826;2022-11-18T15:57:36;2.13;;;0.95;;
30249;SDS011;17064;47.974;13.826;2022-11-18T16:02:37;1.15;;;0.77;;
30249;SDS011;17064;47.974;13.826;2022-11-18T16:07:38;1.00;;;0.50;;
30249;SDS011;17064;47.974;13.826;2022-11-18T16:12:39;1.35;;;0.55;;
30249;SDS011;17064;47.974;13.826;2022-11-18T16:17:48;1.63;;;0.50;;
30249;SDS011;17064;47.974;13.826;2022-11-18T16:22:49;0.88;;;0.70;;
30249;SDS011;17064;47.974;13.826;2022-11-18T16:27:51;0.40;;;0.40;;
30249;SDS011;17064;47.974;13.826;2022-11-18T16:32:52;2.10;;;0.60;;
30249;SDS011;17064;47.974;13.826;2022-11-18T16:37:53;1.20;;;0.90;;
30249;SDS011;17064;47.974;13.826;2022-11-18T16:42:54;0.57;;;0.52;;
30249;SDS011;17064;47.974;13.826;2022-11-18T16:47:54;0.80;;;0.60;;
30249;SDS011;17064;47.974;13.826;2022-11-18T16:52:55;1.10;;;0.63;;
30249;SDS011;17064;47.974;13.826;2022-11-18T16:57:56;0.82;;;0.70;;
30249;SDS011;17064;47.974;13.826;2022-11-18T17:02:57;1.35;;;0.70;;
30249;SDS011;17064;47.974;13.826;2022-11-18T17:07:59;0.50;;;0.30;;
30249;SDS011;17064;47.974;13.826;2022-11-18T17:12:59;0.20;;;0.20;;
30249;SDS011;17064;47.974;13.826;2022-11-18T17:18:00;0.30;;;0.30;;
30249;SDS011;17064;47.974;13.826;2022-11-18T17:23:01;0.45;;;0.30;;
30249;SDS011;17064;47.974;13.826;2022-11-18T17:28:02;2.03;;;0.60;;
30249;SDS011;17064;47.974;13.826;2022-11-18T17:33:02;0.80;;;0.63;;
30249;SDS011;17064;47.974;13.826;2022-11-18T17:38:03;0.88;;;0.30;;
30249;SDS011;17064;47.974;13.826;2022-11-18T17:43:04;2.45;;;0.77;;
30249;SDS011;17064;47.974;13.826;2022-11-18T17:48:05;2.63;;;0.50;;
30249;SDS011;17064;47.974;13.826;2022-11-18T17:53:06;3.13;;;0.70;;
30249;SDS011;17064;47.974;13.826;2022-11-18T17:58:07;0.52;;;0.50;;
30249;SDS011;17064;47.974;13.826;2022-11-18T18:03:08;1.10;;;0.50;;
30249;SDS011;17064;47.974;13.826;2022-11-18T18:08:09;1.10;;;0.50;;
30249;SDS011;17064;47.974;13.826;2022-11-18T18:13:10;1.55;;;0.40;;
30249;SDS011;17064;47.974;13.826;2022-11-18T18:18:29;1.10;;;0.68;;
30249;SDS011;17064;47.974;13.826;2022-11-18T18:23:30;4.53;;;0.55;;
30249;SDS011;17064;47.974;13.826;2022-11-18T18:28:31;0.28;;;0.20;;
30249;SDS011;17064;47.974;13.826;2022-11-18T18:33:32;1.58;;;0.32;;
30249;SDS011;17064;47.974;13.826;2022-11-18T18:38:35;1.33;;;0.40;;
30249;SDS011;17064;47.974;13.826;2022-11-18T18:43:37;2.38;;;0.30;;
30249;SDS011;17064;47.974;13.826;2022-11-18T18:48:39;1.25;;;0.55;;
30249;SDS011;17064;47.974;13.826;2022-11-18T18:53:40;0.50;;;0.30;;
30249;SDS011;17064;47.974;13.826;2022-11-18T18:58:41;3.03;;;0.30;;
30249;SDS011;17064;47.974;13.826;2022-11-18T19:03:42;0.35;;;0.22;;
30249;SDS011;17064;47.974;13.826;2022-11-18T19:08:44;5.05;;;1.88;;
30249;SDS011;17064;47.974;13.826;2022-11-18T19:13:46;1.45;;;0.65;;
30249;SDS011;17064;47.974;13.826;2022-11-18T19:18:47;0.85;;;0.63;;
30249;SDS011;17064;47.974;13.826;2022-11-18T19:23:48;0.98;;;0.50;;
30249;SDS011;17064;47.974;13.826;2022-11-18T19:28:49;2.15;;;0.65;;
30249;SDS011;17064;47.974;13.826;2022-11-18T19:33:51;0.98;;;0.57;;
30249;SDS011;17064;47.974;13.826;2022-11-18T19:38:52;1.73;;;0.70;;
30249;SDS011;17064;47.974;13.826;2022-11-18T19:48:56;1.33;;;0.80;;
30249;SDS011;17064;47.974;13.826;2022-11-18T19:53:59;1.55;;;0.85;;
30249;SDS011;17064;47.974;13.826;2022-11-18T19:59:00;1.53;;;1.23;;
30249;SDS011;17064;47.974;13.826;2022-11-18T20:04:01;3.03;;;1.95;;
30249;SDS011;17064;47.974;13.826;2022-11-18T20:09:08;2.53;;;1.67;;
30249;SDS011;17064;47.974;13.826;2022-11-18T20:14:10;2.85;;;1.70;;
30249;SDS011;17064;47.974;13.826;2022-11-18T20:19:12;3.83;;;1.70;;
30249;SDS011;17064;47.974;13.826;2022-11-18T20:24:14;4.22;;;2.00;;
30249;SDS011;17064;47.974;13.826;2022-11-18T20:29:17;1.83;;;1.60;;
30249;SDS011;17064;47.974;13.826;2022-11-18T20:34:18;3.15;;;1.63;;
30249;SDS011;17064;47.974;13.826;2022-11-18T20:39:21;2.33;;;1.92;;
30249;SDS011;17064;47.974;13.826;2022-11-18T20:44:22;4.93;;;2.10;;
30249;SDS011;17064;47.974;13.826;2022-11-18T20:49:23;2.92;;;1.48;;
30249;SDS011;17064;47.974;13.826;2022-11-18T20:54:24;4.47;;;1.75;;
30249;SDS011;17064;47.974;13.826;2022-11-18T20:59:25;2.55;;;1.40;;
30249;SDS011;17064;47.974;13.826;2022-11-18T21:04:26;1.50;;;1.10;;
30249;SDS011;17064;47.974;13.826;2022-11-18T21:09:27;2.10;;;1.30;;
30249;SDS011;17064;47.974;13.826;2022-11-18T21:14:31;1.42;;;1.33;;
30249;SDS011;17064;47.974;13.826;2022-11-18T21:19:32;3.90;;;1.40;;
30249;SDS011;17064;47.974;13.826;2022-11-18T21:24:33;2.97;;;1.70;;
30249;SDS011;17064;47.974;13.826;2022-11-18T21:29:34;3.08;;;1.42;;
30249;SDS011;17064;47.974;13.826;2022-11-18T21:34:35;3.28;;;1.60;;
30249;SDS011;17064;47.974;13.826;2022-11-18T21:39:36;1.73;;;1.50;;
30249;SDS011;17064;47.974;13.826;2022-11-18T21:44:37;3.97;;;1.40;;
30249;SDS011;17064;47.974;13.826;2022-11-18T21:49:37;2.03;;;1.70;;
30249;SDS011;17064;47.974;13.826;2022-11-18T21:54:38;3.25;;;1.75;;
30249;SDS011;17064;47.974;13.826;2022-11-18T21:59:39;4.00;;;1.63;;
30249;SDS011;17064;47.974;13.826;2022-11-18T22:04:40;2.17;;;1.40;;
30249;SDS011;17064;47.974;13.826;2022-11-18T22:09:52;1.77;;;1.52;;
30249;SDS011;17064;47.974;13.826;2022-11-18T22:14:54;2.25;;;1.42;;
30249;SDS011;17064;47.974;13.826;2022-11-18T22:19:55;2.78;;;1.50;;
30249;SDS011;17064;47.974;13.826;2022-11-18T22:24:55;2.92;;;1.58;;
30249;SDS011;17064;47.974;13.826;2022-11-18T22:29:56;2.67;;;1.20;;
30249;SDS011;17064;47.974;13.826;2022-11-18T22:34:56;3.83;;;1.25;;
30249;SDS011;17064;47.974;13.826;2022-11-18T22:39:57;2.22;;;1.30;;
30249;SDS011;17064;47.974;13.826;2022-11-18T22:44:58;2.90;;;1.20;;
30249;SDS011;17064;47.974;13.826;2022-11-18T22:49:59;4.07;;;1.35;;
30249;SDS011;17064;47.974;13.826;2022-11-18T22:54:59;6.65;;;2.95;;
30249;SDS011;17064;47.974;13.826;2022-11-18T23:00:00;5.13;;;1.70;;
30249;SDS011;17064;47.974;13.826;2022-11-18T23:05:01;1.80;;;1.27;;
30249;SDS011;17064;47.974;13.826;2022-11-18T23:10:02;3.05;;;1.13;;
30249;SDS011;17064;47.974;13.826;2022-11-18T23:15:02;2.75;;;1.00;;
30249;SDS011;17064;47.974;13.826;2022-11-18T23:20:04;0.73;;;0.50;;
30249;SDS011;17064;47.974;13.826;2022-11-18T23:25:05;5.47;;;0.70;;
30249;SDS011;17064;47.974;13.826;2022-11-18T23:30:06;3.63;;;0.95;;
30249;SDS011;17064;47.974;13.826;2022-11-18T23:35:07;1.25;;;0.70;;
30249;SDS011;17064;47.974;13.826;2022-11-18T23:40:08;4.13;;;1.15;;
30249;SDS011;17064;47.974;13.826;2022-11-18T23:45:09;2.10;;;0.80;;
30249;SDS011;17064;47.974;13.826;2022-11-18T23:50:10;1.35;;;0.70;;
30249;SDS011;17064;47.974;13.826;2022-11-18T23:55:11;2.50;;;1.30;;
